createdAt,value
2016-05-29T00:00:40.838Z,943.64
2016-05-29T00:01:44.388Z,943.61
2016-05-29T00:02:40.751Z,943.61
2016-05-29T00:03:40.690Z,943.64
2016-05-29T00:04:40.646Z,943.64
2016-05-29T00:05:40.602Z,943.66
2016-05-29T00:06:40.559Z,943.66
2016-05-29T00:07:40.514Z,943.66
2016-05-29T00:08:40.470Z,943.66
2016-05-29T00:09:40.426Z,943.64
2016-05-29T00:10:40.381Z,943.64
2016-05-29T00:11:40.322Z,943.7
2016-05-29T00:12:40.277Z,943.66
2016-05-29T00:13:40.234Z,943.71
2016-05-29T00:14:40.189Z,943.71
2016-05-29T00:15:40.144Z,943.68
2016-05-29T00:16:40.100Z,943.67
2016-05-29T00:17:40.056Z,943.68
2016-05-29T00:18:40.012Z,943.67
2016-05-29T00:19:39.969Z,943.62
2016-05-29T00:20:39.908Z,943.6
2016-05-29T00:21:39.880Z,943.59
2016-05-29T00:22:39.820Z,943.62
2016-05-29T00:23:39.775Z,943.56
2016-05-29T00:24:39.732Z,943.55
2016-05-29T00:25:39.688Z,943.52
2016-05-29T00:26:39.643Z,943.51
2016-05-29T00:27:39.599Z,943.48
2016-05-29T00:28:39.554Z,943.46
2016-05-29T00:29:39.495Z,943.47
2016-05-29T00:30:39.451Z,943.46
2016-05-29T00:31:39.407Z,943.43
2016-05-29T00:32:39.362Z,943.39
2016-05-29T00:33:39.318Z,943.45
2016-05-29T00:34:39.274Z,943.41
2016-05-29T00:35:39.230Z,943.41
2016-05-29T00:36:39.185Z,943.38
2016-05-29T00:37:39.142Z,943.33
2016-05-29T00:38:39.097Z,943.28
2016-05-29T00:39:39.037Z,943.25
2016-05-29T00:40:38.993Z,943.24
2016-05-29T00:41:38.949Z,943.2
2016-05-29T00:42:38.905Z,943.16
2016-05-29T00:43:38.861Z,943.16
2016-05-29T00:44:38.817Z,943.17
2016-05-29T00:45:38.788Z,943.18
2016-05-29T00:46:38.728Z,943.17
2016-05-29T00:47:38.669Z,943.15
2016-05-29T00:48:38.624Z,943.15
2016-05-29T00:49:38.580Z,943.13
2016-05-29T00:50:38.536Z,943.08
2016-05-29T00:51:38.491Z,943.06
2016-05-29T00:52:38.464Z,943.06
2016-05-29T00:53:38.403Z,943.04
2016-05-29T00:54:38.359Z,943.03
2016-05-29T00:55:38.299Z,943.04
2016-05-29T00:56:38.271Z,943.04
2016-05-29T00:57:38.226Z,943.03
2016-05-29T00:58:38.199Z,943.03
2016-05-29T00:59:38.122Z,943.01
2016-05-29T01:00:38.078Z,943.04
2016-05-29T01:01:38.035Z,943.01
2016-05-29T01:02:37.990Z,943.05
2016-05-29T01:03:37.946Z,943.03
2016-05-29T01:04:37.901Z,943.07
2016-05-29T01:05:38.232Z,943.05
2016-05-29T01:06:37.813Z,943.04
2016-05-29T01:07:37.769Z,943.03
2016-05-29T01:08:37.709Z,943.04
2016-05-29T01:09:37.665Z,943.07
2016-05-29T01:10:37.620Z,943.02
2016-05-29T01:11:37.576Z,943.01
2016-05-29T01:12:37.532Z,943
2016-05-29T01:13:37.488Z,943.02
2016-05-29T01:14:37.428Z,942.97
2016-05-29T01:15:37.384Z,943
2016-05-29T01:16:37.340Z,942.99
2016-05-29T01:17:37.295Z,943.02
2016-05-29T01:18:37.267Z,943.01
2016-05-29T01:19:37.208Z,943
2016-05-29T01:20:37.163Z,942.98
2016-05-29T01:21:37.119Z,943.02
2016-05-29T01:22:37.075Z,942.99
2016-05-29T01:23:37.030Z,942.95
2016-05-29T01:24:36.986Z,942.91
2016-05-29T01:25:36.927Z,942.9
2016-05-29T01:26:36.883Z,942.88
2016-05-29T01:27:36.854Z,942.86
2016-05-29T01:28:36.794Z,942.85
2016-05-29T01:29:36.750Z,942.86
2016-05-29T01:30:36.706Z,942.85
2016-05-29T01:31:36.662Z,942.86
2016-05-29T01:32:36.618Z,942.92
2016-05-29T01:33:36.574Z,942.91
2016-05-29T01:34:36.513Z,942.91
2016-05-29T01:35:36.469Z,942.96
2016-05-29T01:36:36.426Z,942.92
2016-05-29T01:37:36.381Z,942.95
2016-05-29T01:38:36.337Z,942.97
2016-05-29T01:39:36.293Z,943.01
2016-05-29T01:40:36.248Z,943.01
2016-05-29T01:41:36.204Z,943
2016-05-29T01:42:36.160Z,942.98
2016-05-29T01:43:36.115Z,942.98
2016-05-29T01:44:36.072Z,942.99
2016-05-29T01:45:36.012Z,942.98
2016-05-29T01:46:35.984Z,942.97
2016-05-29T01:47:35.923Z,942.97
2016-05-29T01:48:35.879Z,942.95
2016-05-29T01:49:35.835Z,942.96
2016-05-29T01:50:35.791Z,942.97
2016-05-29T01:51:35.747Z,942.94
2016-05-29T01:52:35.702Z,942.91
2016-05-29T01:53:35.658Z,942.87
2016-05-29T01:54:35.614Z,942.93
2016-05-29T01:55:35.554Z,942.89
2016-05-29T01:56:35.510Z,942.94
2016-05-29T01:57:35.466Z,942.96
2016-05-29T01:58:35.437Z,942.92
2016-05-29T01:59:35.378Z,942.95
2016-05-29T02:00:35.333Z,942.93
2016-05-29T02:01:35.289Z,942.88
2016-05-29T02:02:35.229Z,942.86
2016-05-29T02:03:35.185Z,942.91
2016-05-29T02:04:35.141Z,942.88
2016-05-29T02:05:35.097Z,942.9
2016-05-29T02:06:35.053Z,942.93
2016-05-29T02:07:35.008Z,942.91
2016-05-29T02:08:34.965Z,942.91
2016-05-29T02:09:34.921Z,942.89
2016-05-29T02:10:34.876Z,942.92
2016-05-29T02:11:34.831Z,942.94
2016-05-29T02:12:34.773Z,942.97
2016-05-29T02:13:34.728Z,942.94
2016-05-29T02:14:34.684Z,942.95
2016-05-29T02:15:34.639Z,942.94
2016-05-29T02:16:34.595Z,942.94
2016-05-29T02:17:34.551Z,943.03
2016-05-29T02:18:34.507Z,943.08
2016-05-29T02:19:34.462Z,943.17
2016-05-29T02:20:34.434Z,943.2
2016-05-29T02:21:34.374Z,943.18
2016-05-29T02:22:34.330Z,943.15
2016-05-29T02:23:34.286Z,943.12
2016-05-29T02:24:34.225Z,943.11
2016-05-29T02:25:34.182Z,943.09
2016-05-29T02:26:34.138Z,943.09
2016-05-29T02:27:34.094Z,943.04
2016-05-29T02:28:34.049Z,943.05
2016-05-29T02:29:34.005Z,943.05
2016-05-29T02:30:33.961Z,943.11
2016-05-29T02:31:33.916Z,943.1
2016-05-29T02:32:33.872Z,943.17
2016-05-29T02:33:33.813Z,943.22
2016-05-29T02:34:33.769Z,943.19
2016-05-29T02:35:33.724Z,943.18
2016-05-29T02:36:33.680Z,943.12
2016-05-29T02:37:33.635Z,943.12
2016-05-29T02:38:33.592Z,943.08
2016-05-29T02:39:33.548Z,943.08
2016-05-29T02:40:33.503Z,943.01
2016-05-29T02:41:33.460Z,943.01
2016-05-29T02:42:33.415Z,943.07
2016-05-29T02:43:33.356Z,943.11
2016-05-29T02:44:33.311Z,943.09
2016-05-29T02:45:33.267Z,943.01
2016-05-29T02:46:33.223Z,942.93
2016-05-29T02:47:33.178Z,942.86
2016-05-29T02:48:33.135Z,942.78
2016-05-29T02:49:33.090Z,942.72
2016-05-29T02:50:33.046Z,942.68
2016-05-29T02:51:32.986Z,942.61
2016-05-29T02:52:32.941Z,942.6
2016-05-29T02:53:32.898Z,942.61
2016-05-29T02:54:32.853Z,942.6
2016-05-29T02:55:32.809Z,942.61
2016-05-29T02:56:32.765Z,942.67
2016-05-29T02:57:32.722Z,942.78
2016-05-29T02:58:32.677Z,942.9
2016-05-29T02:59:32.632Z,942.9
2016-05-29T03:00:32.589Z,942.9
2016-05-29T03:01:32.544Z,942.93
2016-05-29T03:02:32.500Z,942.92
2016-05-29T03:03:32.440Z,942.94
2016-05-29T03:04:32.396Z,942.98
2016-05-29T03:05:32.352Z,943.02
2016-05-29T03:06:32.307Z,942.93
2016-05-29T03:07:32.263Z,942.92
2016-05-29T03:08:32.219Z,942.87
2016-05-29T03:09:32.176Z,942.91
2016-05-29T03:10:32.115Z,942.93
2016-05-29T03:11:32.071Z,943.03
2016-05-29T03:12:32.027Z,943.09
2016-05-29T03:13:31.982Z,943.17
2016-05-29T03:14:31.939Z,943.18
2016-05-29T03:15:31.895Z,943.16
2016-05-29T03:16:31.851Z,943.11
2016-05-29T03:17:31.822Z,943.15
2016-05-29T03:18:31.745Z,943.22
2016-05-29T03:19:31.702Z,943.26
2016-05-29T03:20:31.658Z,943.31
2016-05-29T03:21:31.614Z,943.32
2016-05-29T03:22:31.569Z,943.33
2016-05-29T03:23:31.526Z,943.34
2016-05-29T03:24:31.497Z,943.35
2016-05-29T03:25:31.436Z,943.33
2016-05-29T03:26:31.393Z,943.3
2016-05-29T03:27:31.349Z,943.33
2016-05-29T03:28:31.289Z,943.28
2016-05-29T03:29:31.244Z,943.26
2016-05-29T03:30:31.200Z,943.19
2016-05-29T03:31:31.172Z,943.15
2016-05-29T03:32:31.112Z,943.11
2016-05-29T03:33:31.068Z,943.17
2016-05-29T03:34:31.024Z,943.15
2016-05-29T03:35:30.963Z,943.13
2016-05-29T03:36:30.935Z,943.12
2016-05-29T03:37:30.876Z,943.1
2016-05-29T03:38:30.847Z,943.09
2016-05-29T03:39:30.787Z,943.07
2016-05-29T03:40:30.743Z,943.13
2016-05-29T03:41:30.699Z,943.11
2016-05-29T03:42:30.654Z,943.12
2016-05-29T03:43:30.610Z,943.21
2016-05-29T03:44:30.551Z,943.17
2016-05-29T03:45:30.522Z,943.24
2016-05-29T03:46:30.462Z,943.25
2016-05-29T03:47:30.418Z,943.27
2016-05-29T03:48:30.373Z,943.31
2016-05-29T03:49:30.329Z,943.35
2016-05-29T03:50:30.832Z,943.38
2016-05-29T03:51:30.226Z,943.4
2016-05-29T03:52:30.181Z,943.44
2016-05-29T03:53:30.137Z,943.48
2016-05-29T03:54:30.093Z,943.46
2016-05-29T03:55:30.049Z,943.43
2016-05-29T03:56:30.005Z,943.43
2016-05-29T03:57:29.961Z,943.44
2016-05-29T03:58:29.900Z,943.38
2016-05-29T03:59:29.872Z,943.33
2016-05-29T04:00:29.812Z,943.33
2016-05-29T04:01:29.769Z,943.3
2016-05-29T04:02:29.724Z,943.27
2016-05-29T04:03:29.679Z,943.27
2016-05-29T04:04:29.636Z,943.26
2016-05-29T04:05:29.686Z,943.25
2016-05-29T04:06:29.579Z,943.2
2016-05-29T04:07:29.487Z,943.21
2016-05-29T04:08:29.460Z,943.21
2016-05-29T04:09:29.399Z,943.21
2016-05-29T04:10:29.354Z,943.25
2016-05-29T04:11:29.310Z,943.28
2016-05-29T04:12:29.251Z,943.36
2016-05-29T04:13:29.223Z,943.4
2016-05-29T04:14:29.178Z,943.38
2016-05-29T04:15:29.118Z,943.37
2016-05-29T04:16:29.074Z,943.39
2016-05-29T04:17:29.029Z,943.41
2016-05-29T04:18:28.986Z,943.37
2016-05-29T04:19:28.957Z,943.38
2016-05-29T04:20:29.085Z,943.37
2016-05-29T04:21:28.837Z,943.34
2016-05-29T04:22:28.793Z,943.37
2016-05-29T04:23:28.750Z,943.37
2016-05-29T04:24:28.705Z,943.43
2016-05-29T04:25:28.661Z,943.45
2016-05-29T04:26:28.616Z,943.54
2016-05-29T04:27:28.573Z,943.57
2016-05-29T04:28:28.513Z,943.64
2016-05-29T04:29:28.468Z,943.65
2016-05-29T04:30:28.424Z,943.69
2016-05-29T04:31:28.396Z,943.72
2016-05-29T04:32:28.336Z,943.77
2016-05-29T04:33:28.307Z,943.77
2016-05-29T04:34:28.248Z,943.8
2016-05-29T04:35:28.203Z,943.79
2016-05-29T04:36:28.269Z,943.76
2016-05-29T04:37:28.099Z,943.82
2016-05-29T04:38:28.054Z,943.82
2016-05-29T04:39:28.011Z,943.83
2016-05-29T04:40:27.966Z,943.8
2016-05-29T04:41:27.923Z,943.77
2016-05-29T04:42:27.878Z,943.78
2016-05-29T04:43:27.835Z,943.85
2016-05-29T04:44:27.790Z,943.91
2016-05-29T04:45:27.761Z,943.95
2016-05-29T04:46:27.702Z,943.95
2016-05-29T04:47:27.642Z,943.95
2016-05-29T04:48:27.613Z,943.92
2016-05-29T04:49:27.554Z,943.91
2016-05-29T04:50:27.697Z,943.95
2016-05-29T04:51:27.465Z,943.98
2016-05-29T04:52:27.420Z,944
2016-05-29T04:53:27.376Z,943.98
2016-05-29T04:54:27.333Z,943.92
2016-05-29T04:55:27.273Z,943.91
2016-05-29T04:56:27.244Z,943.89
2016-05-29T04:57:27.184Z,943.89
2016-05-29T04:58:27.140Z,943.94
2016-05-29T04:59:27.096Z,943.98
2016-05-29T05:00:27.052Z,943.97
2016-05-29T05:01:27.008Z,943.98
2016-05-29T05:02:26.964Z,944.01
2016-05-29T05:03:26.919Z,943.97
2016-05-29T05:04:26.860Z,943.97
2016-05-29T05:05:26.815Z,944.01
2016-05-29T05:06:27.365Z,944
2016-05-29T05:07:26.727Z,943.97
2016-05-29T05:08:26.682Z,943.99
2016-05-29T05:09:26.639Z,943.98
2016-05-29T05:10:26.594Z,943.92
2016-05-29T05:11:26.550Z,943.89
2016-05-29T05:12:26.506Z,943.95
2016-05-29T05:13:26.446Z,943.97
2016-05-29T05:14:26.402Z,943.93
2016-05-29T05:15:26.357Z,943.99
2016-05-29T05:16:26.314Z,943.97
2016-05-29T05:17:26.270Z,943.93
2016-05-29T05:18:26.226Z,943.93
2016-05-29T05:19:26.181Z,943.9
2016-05-29T05:20:26.136Z,943.83
2016-05-29T05:21:26.781Z,943.81
2016-05-29T05:22:26.048Z,943.83
2016-05-29T05:23:26.004Z,943.81
2016-05-29T05:24:26.163Z,943.8
2016-05-29T05:25:25.917Z,943.82
2016-05-29T05:26:25.856Z,943.8
2016-05-29T05:27:25.811Z,943.77
2016-05-29T05:28:25.768Z,943.78
2016-05-29T05:29:25.723Z,943.75
2016-05-29T05:30:25.680Z,943.76
2016-05-29T05:31:25.635Z,943.76
2016-05-29T05:32:25.591Z,943.76
2016-05-29T05:33:25.531Z,943.75
2016-05-29T05:34:25.502Z,943.74
2016-05-29T05:35:25.458Z,943.77
2016-05-29T05:36:26.164Z,943.71
2016-05-29T05:37:25.370Z,943.72
2016-05-29T05:38:25.310Z,943.72
2016-05-29T05:39:25.266Z,943.71
2016-05-29T05:40:25.222Z,943.69
2016-05-29T05:41:25.177Z,943.67
2016-05-29T05:42:25.133Z,943.62
2016-05-29T05:43:25.089Z,943.6
2016-05-29T05:44:25.045Z,943.58
2016-05-29T05:45:25.001Z,943.56
2016-05-29T05:46:24.957Z,943.56
2016-05-29T05:47:24.912Z,943.58
2016-05-29T05:48:24.868Z,943.57
2016-05-29T05:49:24.824Z,943.56
2016-05-29T05:50:26.076Z,943.65
2016-05-29T05:51:24.737Z,943.62
2016-05-29T05:52:24.676Z,943.66
2016-05-29T05:53:24.631Z,943.66
2016-05-29T05:54:24.588Z,943.66
2016-05-29T05:55:24.543Z,943.67
2016-05-29T05:56:24.499Z,943.64
2016-05-29T05:57:24.455Z,943.59
2016-05-29T05:58:24.411Z,943.61
2016-05-29T05:59:24.367Z,943.58
2016-05-29T06:00:24.322Z,943.57
2016-05-29T06:01:24.278Z,943.58
2016-05-29T06:02:24.233Z,943.56
2016-05-29T06:03:24.190Z,943.6
2016-05-29T06:04:24.146Z,943.57
2016-05-29T06:05:24.102Z,943.57
2016-05-29T06:06:24.057Z,943.6
2016-05-29T06:07:24.014Z,943.55
2016-05-29T06:08:23.969Z,943.58
2016-05-29T06:09:23.909Z,943.57
2016-05-29T06:10:23.880Z,943.58
2016-05-29T06:11:23.836Z,943.61
2016-05-29T06:12:23.777Z,943.61
2016-05-29T06:13:23.732Z,943.56
2016-05-29T06:14:23.688Z,943.58
2016-05-29T06:15:23.644Z,943.61
2016-05-29T06:16:23.599Z,943.57
2016-05-29T06:17:23.556Z,943.55
2016-05-29T06:18:23.512Z,943.59
2016-05-29T06:19:23.468Z,943.6
2016-05-29T06:20:24.157Z,943.6
2016-05-29T06:21:23.379Z,943.63
2016-05-29T06:22:23.334Z,943.63
2016-05-29T06:23:23.290Z,943.62
2016-05-29T06:24:23.246Z,943.63
2016-05-29T06:25:23.202Z,943.66
2016-05-29T06:26:23.158Z,943.62
2016-05-29T06:27:23.114Z,943.64
2016-05-29T06:28:23.070Z,943.61
2016-05-29T06:29:23.025Z,943.59
2016-05-29T06:30:22.981Z,943.58
2016-05-29T06:31:22.984Z,943.57
2016-05-29T06:32:22.893Z,943.6
2016-05-29T06:33:22.864Z,943.6
2016-05-29T06:34:22.788Z,943.61
2016-05-29T06:35:22.761Z,943.57
2016-05-29T06:36:22.872Z,943.59
2016-05-29T06:37:22.656Z,943.55
2016-05-29T06:38:22.612Z,943.52
2016-05-29T06:39:22.569Z,943.53
2016-05-29T06:40:22.524Z,943.51
2016-05-29T06:41:22.479Z,943.51
2016-05-29T06:42:22.436Z,943.48
2016-05-29T06:43:22.391Z,943.54
2016-05-29T06:44:22.346Z,943.54
2016-05-29T06:45:22.302Z,943.5
2016-05-29T06:46:22.260Z,943.51
2016-05-29T06:47:22.215Z,943.45
2016-05-29T06:48:22.170Z,943.47
2016-05-29T06:49:22.126Z,943.44
2016-05-29T06:50:22.081Z,943.42
2016-05-29T06:51:22.054Z,943.37
2016-05-29T06:52:21.993Z,943.34
2016-05-29T06:53:21.949Z,943.33
2016-05-29T06:54:21.890Z,943.33
2016-05-29T06:55:21.846Z,943.31
2016-05-29T06:56:21.801Z,943.31
2016-05-29T06:57:21.772Z,943.31
2016-05-29T06:58:21.713Z,943.26
2016-05-29T06:59:21.669Z,943.26
2016-05-29T07:00:21.640Z,943.24
2016-05-29T07:01:21.580Z,943.25
2016-05-29T07:02:21.536Z,943.28
2016-05-29T07:03:21.492Z,943.3
2016-05-29T07:04:21.447Z,943.28
2016-05-29T07:05:21.403Z,943.28
2016-05-29T07:06:21.359Z,943.29
2016-05-29T07:07:21.316Z,943.26
2016-05-29T07:08:21.271Z,943.28
2016-05-29T07:09:21.227Z,943.27
2016-05-29T07:10:21.183Z,943.27
2016-05-29T07:11:21.138Z,943.25
2016-05-29T07:12:21.094Z,943.27
2016-05-29T07:13:21.050Z,943.23
2016-05-29T07:14:21.005Z,943.28
2016-05-29T07:15:20.962Z,943.28
2016-05-29T07:16:20.918Z,943.26
2016-05-29T07:17:20.873Z,943.28
2016-05-29T07:18:20.829Z,943.25
2016-05-29T07:19:20.785Z,943.3
2016-05-29T07:20:20.741Z,943.31
2016-05-29T07:21:20.696Z,943.3
2016-05-29T07:22:20.652Z,943.3
2016-05-29T07:23:20.608Z,943.25
2016-05-29T07:24:20.579Z,943.25
2016-05-29T07:25:20.520Z,943.27
2016-05-29T07:26:20.492Z,943.26
2016-05-29T07:27:20.431Z,943.25
2016-05-29T07:28:20.387Z,943.3
2016-05-29T07:29:20.359Z,943.27
2016-05-29T07:30:20.298Z,943.2
2016-05-29T07:31:20.255Z,943.19
2016-05-29T07:32:20.211Z,943.18
2016-05-29T07:33:20.181Z,943.18
2016-05-29T07:34:20.123Z,943.18
2016-05-29T07:35:20.078Z,943.21
2016-05-29T07:36:20.034Z,943.22
2016-05-29T07:37:19.989Z,943.15
2016-05-29T07:38:19.960Z,943.17
2016-05-29T07:39:19.902Z,943.16
2016-05-29T07:40:19.872Z,943.16
2016-05-29T07:41:19.813Z,943.14
2016-05-29T07:42:19.768Z,943.15
2016-05-29T07:43:19.725Z,943.15
2016-05-29T07:44:19.680Z,943.13
2016-05-29T07:45:19.635Z,943.14
2016-05-29T07:46:19.608Z,943.2
2016-05-29T07:47:19.548Z,943.18
2016-05-29T07:48:19.504Z,943.12
2016-05-29T07:49:19.459Z,943.13
2016-05-29T07:50:19.727Z,943.12
2016-05-29T07:51:20.121Z,943.08
2016-05-29T07:52:19.326Z,943.09
2016-05-29T07:53:19.298Z,943.08
2016-05-29T07:54:19.238Z,943.11
2016-05-29T07:55:19.195Z,943.07
2016-05-29T07:56:19.150Z,943.09
2016-05-29T07:57:19.106Z,943.08
2016-05-29T07:58:19.062Z,943.06
2016-05-29T07:59:19.017Z,943.09
2016-05-29T08:00:18.989Z,943.05
2016-05-29T08:01:18.945Z,943.04
2016-05-29T08:02:18.901Z,943.03
2016-05-29T08:03:18.856Z,943.02
2016-05-29T08:04:18.827Z,942.98
2016-05-29T08:05:18.767Z,942.97
2016-05-29T08:06:19.380Z,942.95
2016-05-29T08:07:18.680Z,942.9
2016-05-29T08:08:18.635Z,942.9
2016-05-29T08:09:18.591Z,942.91
2016-05-29T08:10:18.547Z,942.9
2016-05-29T08:11:18.503Z,942.91
2016-05-29T08:12:18.458Z,942.9
2016-05-29T08:13:18.430Z,942.91
2016-05-29T08:14:18.370Z,942.91
2016-05-29T08:15:18.327Z,942.88
2016-05-29T08:16:18.282Z,942.86
2016-05-29T08:17:18.253Z,942.85
2016-05-29T08:18:18.194Z,942.84
2016-05-29T08:19:18.149Z,942.84
2016-05-29T08:20:18.105Z,942.77
2016-05-29T08:21:18.060Z,942.78
2016-05-29T08:22:18.018Z,942.8
2016-05-29T08:23:17.988Z,942.76
2016-05-29T08:24:17.929Z,942.81
2016-05-29T08:25:17.900Z,942.85
2016-05-29T08:26:17.856Z,942.85
2016-05-29T08:27:17.818Z,942.83
2016-05-29T08:28:17.796Z,942.83
2016-05-29T08:29:17.790Z,942.87
2016-05-29T08:30:17.752Z,942.87
2016-05-29T08:31:17.746Z,942.87
2016-05-29T08:32:17.694Z,942.88
2016-05-29T08:33:17.658Z,942.88
2016-05-29T08:34:17.622Z,942.89
2016-05-29T08:35:17.617Z,942.87
2016-05-29T08:36:17.550Z,942.86
2016-05-29T08:37:17.524Z,942.85
2016-05-29T08:38:17.483Z,942.84
2016-05-29T08:39:17.427Z,942.81
2016-05-29T08:40:17.401Z,942.78
2016-05-29T08:41:17.360Z,942.8
2016-05-29T08:42:17.317Z,942.77
2016-05-29T08:43:17.257Z,942.76
2016-05-29T08:44:17.230Z,942.73
2016-05-29T08:45:17.186Z,942.76
2016-05-29T08:46:17.142Z,942.74
2016-05-29T08:47:17.098Z,942.7
2016-05-29T08:48:17.055Z,942.67
2016-05-29T08:49:17.012Z,942.67
2016-05-29T08:50:16.968Z,942.61
2016-05-29T08:51:16.924Z,942.6
2016-05-29T08:52:16.880Z,942.62
2016-05-29T08:53:16.836Z,942.61
2016-05-29T08:54:16.792Z,942.6
2016-05-29T08:55:16.749Z,942.54
2016-05-29T08:56:16.704Z,942.52
2016-05-29T08:57:16.661Z,942.51
2016-05-29T08:58:16.648Z,942.45
2016-05-29T08:59:16.572Z,942.43
2016-05-29T09:00:16.559Z,942.39
2016-05-29T09:01:16.500Z,942.36
2016-05-29T09:02:16.456Z,942.36
2016-05-29T09:03:16.395Z,942.34
2016-05-29T09:04:16.351Z,942.35
2016-05-29T09:05:16.338Z,942.33
2016-05-29T09:06:16.263Z,942.35
2016-05-29T09:07:16.234Z,942.31
2016-05-29T09:08:16.191Z,942.35
2016-05-29T09:09:16.146Z,942.35
2016-05-29T09:10:16.102Z,942.38
2016-05-29T09:11:16.057Z,942.36
2016-05-29T09:12:16.030Z,942.41
2016-05-29T09:13:15.969Z,942.4
2016-05-29T09:14:15.941Z,942.43
2016-05-29T09:15:15.880Z,942.33
2016-05-29T09:16:15.852Z,942.37
2016-05-29T09:17:15.808Z,942.35
2016-05-29T09:18:17.107Z,942.37
2016-05-29T09:19:15.704Z,942.4
2016-05-29T09:20:15.676Z,942.3
2016-05-29T09:21:15.663Z,942.35
2016-05-29T09:22:15.587Z,942.39
2016-05-29T09:23:15.543Z,942.31
2016-05-29T09:24:15.499Z,942.34
2016-05-29T09:25:15.454Z,942.29
2016-05-29T09:26:15.410Z,942.29
2016-05-29T09:27:15.398Z,942.26
2016-05-29T09:28:15.322Z,942.27
2016-05-29T09:29:15.340Z,942.26
2016-05-29T09:30:15.250Z,942.28
2016-05-29T09:31:15.205Z,942.3
2016-05-29T09:32:15.176Z,942.29
2016-05-29T09:33:15.117Z,942.23
2016-05-29T09:34:15.073Z,942.3
2016-05-29T09:35:15.044Z,942.25
2016-05-29T09:36:15.437Z,942.26
2016-05-29T09:37:15.472Z,942.25
2016-05-29T09:38:15.099Z,942.24
2016-05-29T09:39:15.070Z,942.23
2016-05-29T09:40:15.197Z,942.23
2016-05-29T09:41:14.919Z,942.25
2016-05-29T09:42:15.032Z,942.23
2016-05-29T09:43:14.738Z,942.21
2016-05-29T09:44:15.068Z,942.21
2016-05-29T09:45:14.743Z,942.19
2016-05-29T09:46:15.168Z,942.16
2016-05-29T09:47:14.671Z,942.16
2016-05-29T09:48:16.251Z,942.15
2016-05-29T09:49:14.551Z,942.13
2016-05-29T09:50:14.444Z,942.14
2016-05-29T09:51:14.431Z,942.14
2016-05-29T09:52:14.684Z,942.08
2016-05-29T09:53:14.686Z,942.06
2016-05-29T09:54:14.783Z,942.03
2016-05-29T09:55:14.582Z,942.08
2016-05-29T09:56:14.241Z,942.08
2016-05-29T09:57:14.415Z,942.06
2016-05-29T09:58:14.481Z,942.08
2016-05-29T09:59:15.140Z,942.07
2016-05-29T10:00:14.314Z,942.06
2016-05-29T10:01:14.068Z,942.07
2016-05-29T10:02:14.007Z,942.02
2016-05-29T10:03:14.026Z,942.03
2016-05-29T10:04:14.137Z,942.01
2016-05-29T10:05:14.171Z,942.03
2016-05-29T10:06:14.065Z,942.03
2016-05-29T10:07:13.770Z,942.05
2016-05-29T10:08:13.898Z,942.02
2016-05-29T10:09:14.135Z,941.99
2016-05-29T10:10:14.983Z,942.01
2016-05-29T10:11:13.688Z,942.03
2016-05-29T10:12:14.034Z,942.04
2016-05-29T10:13:13.880Z,942.01
2016-05-29T10:14:13.680Z,942
2016-05-29T10:15:13.714Z,942.07
2016-05-29T10:16:13.591Z,942.03
2016-05-29T10:17:13.766Z,942.01
2016-05-29T10:18:13.253Z,941.97
2016-05-29T10:19:13.413Z,941.98
2016-05-29T10:20:13.462Z,941.93
2016-05-29T10:21:13.652Z,941.92
2016-05-29T10:22:13.623Z,941.93
2016-05-29T10:23:13.252Z,941.89
2016-05-29T10:24:13.176Z,941.87
2016-05-29T10:25:13.318Z,941.87
2016-05-29T10:26:13.307Z,941.88
2016-05-29T10:27:12.903Z,941.88
2016-05-29T10:28:13.296Z,941.86
2016-05-29T10:29:12.814Z,941.82
2016-05-29T10:30:12.770Z,941.84
2016-05-29T10:31:12.898Z,941.8
2016-05-29T10:32:13.212Z,941.8
2016-05-29T10:33:12.637Z,941.78
2016-05-29T10:34:12.609Z,941.75
2016-05-29T10:35:12.565Z,941.73
2016-05-29T10:36:12.739Z,941.68
2016-05-29T10:37:12.508Z,941.66
2016-05-29T10:38:12.807Z,941.67
2016-05-29T10:39:12.825Z,941.6
2016-05-29T10:40:12.344Z,941.54
2016-05-29T10:41:12.519Z,941.5
2016-05-29T10:42:12.568Z,941.5
2016-05-29T10:43:12.367Z,941.43
2016-05-29T10:44:12.292Z,941.42
2016-05-29T10:45:12.404Z,941.36
2016-05-29T10:46:12.266Z,941.4
2016-05-29T10:47:12.269Z,941.34
2016-05-29T10:48:12.600Z,941.33
2016-05-29T10:49:12.212Z,941.33
2016-05-29T10:50:12.152Z,941.28
2016-05-29T10:51:12.561Z,941.35
2016-05-29T10:52:12.032Z,941.3
2016-05-29T10:53:12.363Z,941.3
2016-05-29T10:54:11.882Z,941.33
2016-05-29T10:55:11.774Z,941.33
2016-05-29T10:56:12.340Z,941.28
2016-05-29T10:57:12.046Z,941.28
2016-05-29T10:58:11.782Z,941.28
2016-05-29T10:59:11.645Z,941.25
2016-05-29T11:00:11.757Z,941.26
2016-05-29T11:01:11.604Z,941.21
2016-05-29T11:02:11.465Z,941.21
2016-05-29T11:03:11.593Z,941.19
2016-05-29T11:04:11.503Z,941.15
2016-05-29T11:05:11.442Z,941.12
2016-05-29T11:06:12.742Z,941.13
2016-05-29T11:07:11.354Z,941.11
2016-05-29T11:08:11.356Z,941.06
2016-05-29T11:09:11.328Z,941.02
2016-05-29T11:10:11.253Z,941.03
2016-05-29T11:11:11.458Z,940.99
2016-05-29T11:12:11.164Z,941.01
2016-05-29T11:13:11.167Z,941
2016-05-29T11:14:11.075Z,941.01
2016-05-29T11:15:10.969Z,941
2016-05-29T11:16:10.893Z,941.02
2016-05-29T11:17:10.865Z,940.98
2016-05-29T11:18:11.336Z,940.98
2016-05-29T11:19:10.746Z,941.01
2016-05-29T11:20:10.732Z,941.05
2016-05-29T11:21:11.157Z,941.09
2016-05-29T11:22:10.629Z,941.12
2016-05-29T11:23:10.616Z,941.18
2016-05-29T11:24:11.134Z,941.2
2016-05-29T11:25:10.887Z,941.18
2016-05-29T11:26:10.529Z,941.27
2016-05-29T11:27:10.455Z,941.25
2016-05-29T11:28:10.863Z,941.25
2016-05-29T11:29:10.381Z,941.26
2016-05-29T11:30:10.276Z,941.23
2016-05-29T11:31:10.293Z,941.21
2016-05-29T11:32:10.218Z,941.17
2016-05-29T11:33:10.517Z,941.15
2016-05-29T11:34:10.129Z,941.12
2016-05-29T11:35:10.554Z,941.11
2016-05-29T11:36:10.089Z,941.08
2016-05-29T11:37:10.372Z,941.05
2016-05-29T11:38:09.969Z,941.04
2016-05-29T11:39:10.236Z,941.03
2016-05-29T11:40:10.131Z,940.97
2016-05-29T11:41:09.836Z,940.94
2016-05-29T11:42:09.980Z,940.92
2016-05-29T11:43:10.232Z,940.88
2016-05-29T11:44:10.266Z,940.87
2016-05-29T11:45:10.113Z,940.85
2016-05-29T11:46:10.052Z,940.83
2016-05-29T11:47:09.727Z,940.79
2016-05-29T11:48:09.605Z,940.79
2016-05-29T11:49:09.998Z,940.76
2016-05-29T11:50:09.641Z,940.76
2016-05-29T11:51:09.519Z,940.75
2016-05-29T11:52:09.802Z,940.77
2016-05-29T11:53:09.430Z,940.78
2016-05-29T11:54:09.418Z,940.8
2016-05-29T11:55:09.311Z,940.8
2016-05-29T11:56:09.267Z,940.83
2016-05-29T11:57:09.191Z,940.82
2016-05-29T11:58:09.569Z,940.84
2016-05-29T11:59:09.134Z,940.86
2016-05-29T12:00:09.090Z,940.86
2016-05-29T12:01:09.468Z,940.87
2016-05-29T12:02:09.033Z,940.86
2016-05-29T12:03:09.036Z,940.84
2016-05-29T12:04:08.898Z,940.84
2016-05-29T12:05:08.948Z,940.84
2016-05-29T12:06:09.403Z,940.81
2016-05-29T12:07:08.906Z,940.76
2016-05-29T12:08:08.753Z,940.78
2016-05-29T12:09:08.677Z,940.75
2016-05-29T12:10:08.617Z,940.73
2016-05-29T12:11:08.901Z,940.75
2016-05-29T12:12:08.560Z,940.74
2016-05-29T12:13:08.875Z,940.78
2016-05-29T12:14:08.456Z,940.78
2016-05-29T12:15:08.444Z,940.8
2016-05-29T12:16:08.696Z,940.84
2016-05-29T12:17:08.527Z,940.84
2016-05-29T12:18:08.654Z,940.84
2016-05-29T12:19:08.297Z,940.87
2016-05-29T12:20:08.222Z,940.93
2016-05-29T12:21:09.413Z,940.9
2016-05-29T12:22:08.149Z,940.89
2016-05-29T12:23:08.090Z,940.9
2016-05-29T12:24:08.013Z,940.91
2016-05-29T12:25:08.236Z,940.9
2016-05-29T12:26:08.254Z,940.9
2016-05-29T12:27:08.068Z,940.91
2016-05-29T12:28:07.853Z,940.87
2016-05-29T12:29:08.137Z,940.88
2016-05-29T12:30:07.952Z,940.82
2016-05-29T12:31:07.908Z,940.82